Hlavní strana
METAR-TAF:

METAR-TAF

Letiště :

Barranquilla, Kolumbie

zeměpisná šířka: 10-53N, zeměpisná délka: 074-47W, výška: 14 m

Aktuální stav počasí

Zpráva byla vytvořena před 1 hodinou a 19 minutami, v 01:00 UTC
Severní vítr 10 kt, proměnlivý mezi severozápadním a severoseverovýchodním
Teplota 27°C
Vlhkost vzduchu 79%
Tlak 1010 hPa
Viditelnost 10 km a více
Skoro jasno ve výšce 2000 ft

METAR: SKBQ 260100Z 36010KT 320V030 9999 FEW020 27/23 A2983 NOSIG

Čas: 21:19 (02:19 UTC)

Předpověď počasí

Zpráva byla vytvořena před 3 hodinami a 49 minutami, v 22:30 UTC
Předpověď platná od 26 v 00 UTC do 26 v 24 UTC
Severní vítr 14 kt
Viditelnost 10 km a více
Skoro jasno ve výšce 1500 ft
Změna
od 26 v 08 UTC do 26 v 10 UTC
Severní vítr 5 kt
Změna
od 26 v 20 UTC do 26 v 22 UTC
Severní vítr 15 kt

TAF: SKBQ 252230Z 2600/2624 36014KT 9999 FEW015 BECMG 2608/2610 01005KT BECMG 2620/2622 36015KT TX32/2617 TN24/2611Z

Stav a předpovědi počasí z více než 4 000 letišť (zprávy METAR a TAF).

Červené a žluté tečky na mapě představují dostupné meteorologické stanice.

Když kurzor umístíte na tečku, zobrazí se název stanice.

Pak kliknutím zobrazíte stav a předpověď počasí.

Chcete-li změnit mapu, kliknutím na zelené tlačítko se znaménkem +mapu přiblížíte, kliknutím na zelené tlačítko se znaménkem – mapu oddálíte a kliknutím na zelené šipky přejdete na sousední mapy.


METAR-TAF: